Time;durP1;ratioP1;P1;durP2;ratioP2;P2;SDS_P1;SDS_P2;PMS_P1;PMS_P2;Temp;Humidity;BMP_temperature;BMP_pressure;BME280_temperature;BME280_humidity;BME280_pressure;Samples;Min_cycle;Max_cycle;Signal;HPM_P1;HPM_P2
2021/07/24 00:01:13;;;;;;;15.18;11.63;;;;;;;17.81;73.22;95805.53;5015627;28;20022;-78
2021/07/24 00:03:39;;;;;;;15.35;12.13;;;;;;;17.75;73.52;95796.53;5032540;28;20017;-78
2021/07/24 00:06:06;;;;;;;16.02;11.48;;;;;;;17.73;73.56;95803.06;5016522;28;20441;-79
2021/07/24 00:08:32;;;;;;;14.55;10.98;;;;;;;17.65;74.17;95796.19;5030636;28;20281;-79
2021/07/24 00:11:06;;;;;;;18.08;12.02;;;;;;;17.72;73.44;95796.13;5040810;28;20029;-78
2021/07/24 00:13:35;;;;;;;17.52;11.48;;;;;;;17.75;73.18;95795.72;5026220;28;20036;-77
2021/07/24 00:16:01;;;;;;;17.30;11.32;;;;;;;17.76;73.08;95787.53;5024371;28;20477;-78
2021/07/24 00:18:27;;;;;;;17.13;11.10;;;;;;;17.78;73.07;95776.69;5027482;28;20205;-78
2021/07/24 00:20:53;;;;;;;14.68;12.38;;;;;;;17.74;73.32;95772.78;5028391;28;20029;-77
2021/07/24 00:23:19;;;;;;;17.00;11.63;;;;;;;17.74;73.13;95752.34;5034767;28;20061;-78
2021/07/24 00:25:45;;;;;;;15.70;11.05;;;;;;;17.71;73.25;95750.13;5028240;28;20049;-78
2021/07/24 00:28:11;;;;;;;16.02;11.63;;;;;;;17.87;72.40;95748.78;5052876;28;20061;-78
2021/07/24 00:30:38;;;;;;;14.80;11.77;;;;;;;17.88;71.73;95742.44;5039340;28;20041;-77
2021/07/24 00:33:09;;;;;;;15.55;10.95;;;;;;;17.89;71.93;95733.44;5035491;28;20029;-76
2021/07/24 00:35:35;;;;;;;14.70;11.32;;;;;;;17.85;72.05;95733.03;5063707;28;20043;-79
2021/07/24 00:38:01;;;;;;;16.48;11.35;;;;;;;17.86;72.14;95729.34;5038656;28;20021;-79
2021/07/24 00:40:30;;;;;;;15.68;10.10;;;;;;;17.83;72.13;95728.97;5034300;28;20041;-76
2021/07/24 00:43:01;;;;;;;17.58;11.93;;;;;;;17.79;73.12;95719.81;5042761;28;20020;-78
2021/07/24 00:45:29;;;;;;;15.90;11.45;;;;;;;17.82;73.02;95725.50;5035763;28;20627;-77
2021/07/24 00:47:56;;;;;;;14.25;11.43;;;;;;;17.80;73.22;95724.88;5029469;28;20371;-76
2021/07/24 00:50:47;;;;;;;17.40;10.90;;;;;;;17.83;73.05;95728.97;5034507;28;20030;-77
2021/07/24 00:53:20;;;;;;;14.80;11.52;;;;;;;17.86;72.41;95717.91;5038012;28;20558;-78
2021/07/24 00:55:48;;;;;;;15.52;11.40;;;;;;;17.84;72.39;95715.47;5027964;28;20022;-77
2021/07/24 00:58:31;;;;;;;14.70;11.25;;;;;;;17.88;71.77;95713.19;5047988;28;20017;-78
2021/07/24 01:00:58;;;;;;;15.15;10.40;;;;;;;17.90;71.51;95717.22;5046919;28;20041;-78
2021/07/24 01:03:24;;;;;;;13.65;10.55;;;;;;;17.94;71.34;95722.13;5055004;28;20163;-77
2021/07/24 01:05:54;;;;;;;16.70;10.45;;;;;;;17.96;71.03;95715.56;5057430;28;20021;-77
2021/07/24 01:08:21;;;;;;;17.17;11.25;;;;;;;18.03;70.60;95710.19;5049490;28;20022;-77
2021/07/24 01:10:48;;;;;;;15.27;11.00;;;;;;;17.96;71.21;95718.22;5043097;28;20021;-77
2021/07/24 01:13:18;;;;;;;14.05;10.38;;;;;;;17.96;70.98;95701.44;5041859;28;20037;-77
2021/07/24 01:15:46;;;;;;;13.63;10.77;;;;;;;17.93;71.36;95701.88;5045850;28;20150;-77
2021/07/24 01:18:13;;;;;;;21.42;11.43;;;;;;;17.98;70.90;95702.88;5035021;28;20021;-77
2021/07/24 01:20:41;;;;;;;16.98;11.07;;;;;;;18.06;70.25;95697.25;5034469;28;20041;-78
2021/07/24 01:23:12;;;;;;;14.07;10.48;;;;;;;18.01;70.81;95707.75;5035614;28;20022;-78
2021/07/24 01:25:46;;;;;;;13.32;9.52;;;;;;;18.00;71.09;95708.75;5028626;28;20104;-77
2021/07/24 01:28:13;;;;;;;14.30;10.27;;;;;;;17.99;70.80;95712.47;5037246;28;20057;-76
2021/07/24 01:30:43;;;;;;;14.15;10.35;;;;;;;18.06;70.21;95707.91;5044279;28;20021;-76
2021/07/24 01:33:10;;;;;;;13.27;9.43;;;;;;;18.00;70.53;95708.75;5006159;28;20038;-76
2021/07/24 01:35:45;;;;;;;17.52;10.55;;;;;;;18.08;69.85;95705.84;5063021;28;20029;-76
2021/07/24 01:38:11;;;;;;;15.05;10.35;;;;;;;18.07;70.13;95701.53;5030046;28;20044;-77
2021/07/24 01:40:38;;;;;;;14.98;9.95;;;;;;;18.13;69.56;95698.00;5038005;28;20036;-77
2021/07/24 01:43:05;;;;;;;13.55;9.75;;;;;;;18.16;69.38;95699.41;5052038;28;20569;-77
2021/07/24 01:45:35;;;;;;;13.38;10.05;;;;;;;18.25;68.73;95710.59;5058978;28;20119;-77
2021/07/24 01:48:03;;;;;;;13.60;10.60;;;;;;;18.23;69.03;95712.66;5030162;28;20188;-77
2021/07/24 01:53:18;;;;;;;13.93;9.95;;;;;;;18.17;69.32;95730.31;5036705;28;20038;-76
2021/07/24 01:55:55;;;;;;;15.05;9.82;;;;;;;18.16;69.40;95723.38;5032787;28;20079;-77
2021/07/24 01:58:37;;;;;;;12.52;9.43;;;;;;;18.21;69.26;95723.53;5049034;28;20026;-77
2021/07/24 02:01:22;;;;;;;14.00;9.98;;;;;;;18.22;69.14;95727.81;5020642;28;20037;-76
2021/07/24 02:04:07;;;;;;;13.20;9.60;;;;;;;18.26;69.13;95720.22;5059859;28;20037;-76
2021/07/24 02:06:45;;;;;;;16.02;10.82;;;;;;;18.35;68.41;95724.22;5028588;28;20033;-77
2021/07/24 02:09:37;;;;;;;16.15;9.02;;;;;;;18.41;68.43;95726.00;5028759;28;20473;-77
2021/07/24 02:12:14;;;;;;;14.02;10.00;;;;;;;18.42;68.24;95727.63;5048779;28;20041;-76
2021/07/24 02:14:46;;;;;;;12.52;9.73;;;;;;;18.52;67.54;95722.59;5035046;28;20038;-78
2021/07/24 02:17:18;;;;;;;15.45;10.40;;;;;;;18.44;68.21;95725.53;5043138;28;20041;-77
2021/07/24 02:19:45;;;;;;;15.57;10.20;;;;;;;18.47;67.98;95722.44;5022332;28;20048;-78
2021/07/24 02:22:11;;;;;;;17.23;11.65;;;;;;;18.46;67.78;95723.47;5034889;28;20017;-78
2021/07/24 02:24:57;;;;;;;16.67;10.18;;;;;;;18.42;67.98;95726.81;5051628;28;20037;-77
2021/07/24 02:27:23;;;;;;;13.85;9.88;;;;;;;18.28;68.72;95720.81;5035580;28;20040;-76
2021/07/24 02:29:51;;;;;;;15.65;9.38;;;;;;;18.18;69.30;95712.53;5056526;28;20017;-77
2021/07/24 02:32:19;;;;;;;14.18;10.60;;;;;;;18.09;69.87;95723.44;5052959;28;20057;-77
2021/07/24 02:34:45;;;;;;;13.55;9.93;;;;;;;18.03;69.84;95711.00;5057991;28;20541;-77
2021/07/24 02:37:11;;;;;;;15.88;10.45;;;;;;;17.88;70.96;95715.84;5031686;28;20021;-77
2021/07/24 02:39:37;;;;;;;15.07;12.02;;;;;;;17.67;72.33;95714.31;5052695;28;20039;-78
2021/07/24 02:42:04;;;;;;;15.85;12.32;;;;;;;17.53;72.90;95707.47;5037483;28;20028;-77
2021/07/24 02:44:34;;;;;;;18.95;11.27;;;;;;;17.57;71.90;95714.00;5056620;28;20033;-77
2021/07/24 02:47:00;;;;;;;15.55;10.45;;;;;;;17.60;72.29;95732.16;5053073;28;20060;-77
2021/07/24 02:49:27;;;;;;;14.50;9.90;;;;;;;17.64;71.80;95726.22;5038727;28;20045;-76
2021/07/24 02:51:56;;;;;;;14.90;10.63;;;;;;;17.63;72.23;95727.25;5061594;28;20035;-76
2021/07/24 02:54:24;;;;;;;16.52;9.88;;;;;;;17.57;72.16;95730.78;5046255;28;20037;-76
2021/07/24 02:56:55;;;;;;;13.52;10.15;;;;;;;17.55;72.20;95730.16;5042703;28;20025;-77
2021/07/24 02:59:21;;;;;;;14.15;10.93;;;;;;;17.52;72.89;95737.75;5021247;28;20087;-77
2021/07/24 03:01:47;;;;;;;14.93;11.00;;;;;;;17.48;73.09;95742.69;5043045;28;20425;-77
2021/07/24 03:04:13;;;;;;;14.88;10.50;;;;;;;17.40;73.66;95727.81;5030697;28;20175;-76
2021/07/24 03:06:38;;;;;;;13.90;10.57;;;;;;;17.43;73.15;95726.56;5033856;28;20151;-77
2021/07/24 03:09:06;;;;;;;15.75;10.68;;;;;;;17.42;73.32;95727.59;5031019;28;20386;-77
2021/07/24 03:11:34;;;;;;;14.50;10.88;;;;;;;17.46;72.93;95718.16;5030427;28;20030;-77
2021/07/24 03:14:00;;;;;;;13.55;9.85;;;;;;;17.43;73.20;95710.63;5052618;28;20029;-76
2021/07/24 03:16:26;;;;;;;13.68;10.48;;;;;;;17.51;72.90;95704.25;5033974;28;20032;-78
2021/07/24 03:18:52;;;;;;;12.38;10.23;;;;;;;17.49;72.86;95700.97;5035392;28;20410;-76
2021/07/24 03:21:19;;;;;;;17.00;10.15;;;;;;;17.53;72.91;95704.81;5033396;28;20489;-77
2021/07/24 03:23:45;;;;;;;13.75;10.85;;;;;;;17.49;72.98;95701.78;5029296;28;20029;-77
2021/07/24 03:26:10;;;;;;;16.08;10.55;;;;;;;17.37;73.44;95695.50;5032089;28;20021;-77
2021/07/24 03:28:37;;;;;;;16.10;10.65;;;;;;;17.30;74.09;95692.09;5029955;28;20116;-78
2021/07/24 03:31:03;;;;;;;14.40;11.10;;;;;;;17.26;74.16;95694.38;5034124;28;20036;-77
2021/07/24 03:33:29;;;;;;;17.30;11.13;;;;;;;17.19;74.26;95699.72;5033507;28;20049;-77
2021/07/24 03:35:55;;;;;;;16.42;10.85;;;;;;;17.17;74.40;95698.31;5035820;28;20370;-78
2021/07/24 03:38:20;;;;;;;16.85;11.73;;;;;;;17.09;74.80;95698.56;5031965;28;20053;-76
2021/07/24 03:40:47;;;;;;;17.67;11.07;;;;;;;17.08;74.85;95695.09;5048105;28;20092;-77
2021/07/24 03:43:16;;;;;;;21.27;12.45;;;;;;;17.07;75.15;95698.78;5050446;28;20029;-78
2021/07/24 03:45:42;;;;;;;15.45;11.63;;;;;;;17.03;75.17;95705.53;5026655;28;20138;-78
2021/07/24 03:48:07;;;;;;;15.07;11.32;;;;;;;16.98;75.92;95705.38;5052829;28;20045;-77
2021/07/24 03:50:33;;;;;;;17.42;11.52;;;;;;;17.02;75.75;95709.22;5039012;28;20415;-77
2021/07/24 03:53:00;;;;;;;16.95;12.38;;;;;;;17.07;75.31;95709.41;5014383;28;20033;-76
2021/07/24 03:55:26;;;;;;;16.83;10.48;;;;;;;17.15;74.77;95700.38;5036315;28;20061;-77
2021/07/24 03:57:55;;;;;;;14.02;10.05;;;;;;;17.22;74.56;95695.03;5034302;28;20026;-78
2021/07/24 04:00:22;;;;;;;14.30;10.10;;;;;;;17.33;73.69;95691.66;5053490;28;20193;-77
2021/07/24 04:02:49;;;;;;;16.80;10.80;;;;;;;17.37;74.21;95682.22;5037454;28;20102;-78
2021/07/24 04:05:17;;;;;;;15.32;10.63;;;;;;;17.48;73.08;95678.91;5054114;28;20131;-78
2021/07/24 04:07:44;;;;;;;14.70;11.48;;;;;;;17.50;72.84;95684.78;5037140;28;20060;-78
2021/07/24 04:10:12;;;;;;;15.60;10.15;;;;;;;17.45;74.05;95687.31;5035993;28;20099;-76
2021/07/24 04:12:41;;;;;;;17.23;10.90;;;;;;;17.37;74.02;95690.19;5056040;28;20084;-78
2021/07/24 04:15:07;;;;;;;16.40;11.45;;;;;;;17.37;74.34;95682.22;5044014;28;20025;-78
2021/07/24 04:17:34;;;;;;;13.15;10.50;;;;;;;17.43;73.96;95674.22;5056669;28;20034;-77
2021/07/24 04:20:00;;;;;;;14.82;11.30;;;;;;;17.46;73.94;95677.47;5050631;28;20029;-78
2021/07/24 04:22:26;;;;;;;15.68;11.43;;;;;;;17.44;74.27;95672.38;5034858;28;20026;-78
2021/07/24 04:24:52;;;;;;;15.02;11.23;;;;;;;17.34;74.70;95664.09;5050729;28;20060;-78
2021/07/24 04:27:17;;;;;;;19.70;11.43;;;;;;;17.35;74.75;95661.19;5034065;28;20092;-78
2021/07/24 04:29:43;;;;;;;13.80;10.73;;;;;;;17.49;74.29;95672.53;5052518;28;20024;-78
2021/07/24 04:32:09;;;;;;;17.77;12.02;;;;;;;17.59;73.72;95670.22;5053837;28;20036;-78
2021/07/24 04:34:34;;;;;;;14.50;10.30;;;;;;;17.71;73.04;95680.97;5022568;28;20470;-77
2021/07/24 04:37:00;;;;;;;15.10;10.38;;;;;;;17.83;73.11;95683.75;5030999;28;20116;-78
2021/07/24 04:39:26;;;;;;;15.98;10.68;;;;;;;17.93;72.62;95686.72;5030460;28;20030;-77
2021/07/24 04:41:52;;;;;;;13.70;10.55;;;;;;;17.97;72.37;95690.56;5041240;28;20040;-77
2021/07/24 04:44:17;;;;;;;15.48;11.10;;;;;;;18.12;72.02;95695.56;5050339;28;20142;-77
2021/07/24 04:46:43;;;;;;;14.95;10.60;;;;;;;18.26;72.46;95701.56;5033075;28;20033;-78
2021/07/24 04:49:09;;;;;;;12.90;9.18;;;;;;;18.37;73.19;95711.47;5050140;28;20789;-78
2021/07/24 04:51:35;;;;;;;14.95;10.65;;;;;;;18.43;73.16;95715.94;5051209;28;20117;-78
2021/07/24 04:54:03;;;;;;;19.45;11.70;;;;;;;18.51;73.83;95714.81;5044888;28;20099;-78
2021/07/24 04:56:31;;;;;;;13.88;10.40;;;;;;;18.49;73.28;95720.38;5017940;28;20098;-78
2021/07/24 04:58:59;;;;;;;16.80;11.23;;;;;;;18.55;72.16;95722.16;5051178;28;20017;-78
2021/07/24 05:01:25;;;;;;;15.05;10.45;;;;;;;18.74;71.98;95725.66;5051641;28;20099;-78
2021/07/24 05:03:51;;;;;;;15.63;10.00;;;;;;;18.89;72.05;95721.81;5015427;28;20458;-78
2021/07/24 05:06:18;;;;;;;15.13;11.15;;;;;;;18.72;71.44;95724.25;5045616;28;20109;-80
2021/07/24 05:08:44;;;;;;;13.45;10.00;;;;;;;18.72;71.44;95721.59;5041828;28;20033;-79
2021/07/24 05:11:09;;;;;;;15.60;10.65;;;;;;;18.59;74.45;95712.69;5038899;28;20045;-78
2021/07/24 05:13:35;;;;;;;13.55;10.18;;;;;;;18.63;73.09;95713.06;5046435;28;20060;-78
2021/07/24 05:16:01;;;;;;;14.85;10.18;;;;;;;18.72;72.26;95705.63;5035349;28;20039;-78
2021/07/24 05:18:27;;;;;;;17.15;10.63;;;;;;;18.65;72.49;95707.53;5030246;28;20511;-79
2021/07/24 05:20:52;;;;;;;16.33;11.50;;;;;;;18.76;71.63;95704.94;5060263;28;20040;-76
2021/07/24 05:23:18;;;;;;;23.13;11.55;;;;;;;18.66;72.25;95706.47;5045155;28;20021;-78
2021/07/24 05:25:44;;;;;;;18.00;11.18;;;;;;;18.76;71.77;95712.13;5027879;28;20033;-78
2021/07/24 05:28:09;;;;;;;14.80;10.30;;;;;;;18.73;71.89;95717.91;5055305;28;20029;-77
2021/07/24 05:30:35;;;;;;;14.52;12.18;;;;;;;18.86;71.43;95727.59;5051300;28;20033;-79
2021/07/24 05:33:01;;;;;;;15.18;11.07;;;;;;;18.87;73.31;95738.00;5016729;28;20021;-78
2021/07/24 05:35:27;;;;;;;14.85;10.48;;;;;;;19.06;72.08;95752.13;5033547;28;20136;-79
2021/07/24 05:37:53;;;;;;;13.45;10.23;;;;;;;19.30;71.29;95761.84;5034947;28;20031;-79
2021/07/24 05:40:19;;;;;;;20.23;10.80;;;;;;;19.29;71.87;95770.09;5037085;28;20068;-79
2021/07/24 05:42:44;;;;;;;14.25;10.02;;;;;;;19.41;70.79;95764.78;5041114;28;20021;-80
2021/07/24 05:45:10;;;;;;;13.45;9.85;;;;;;;19.40;72.02;95758.66;5057753;28;20091;-80
2021/07/24 05:47:36;;;;;;;15.00;10.68;;;;;;;19.44;73.37;95740.34;5046677;28;20029;-77
2021/07/24 05:50:03;;;;;;;16.00;11.13;;;;;;;19.04;74.74;95733.69;5043738;28;20116;-77
2021/07/24 05:52:29;;;;;;;16.58;11.35;;;;;;;19.01;75.72;95741.31;5040074;28;20029;-79
2021/07/24 05:54:55;;;;;;;14.15;10.82;;;;;;;18.91;75.47;95739.19;5037455;28;20033;-79
2021/07/24 05:57:21;;;;;;;14.77;10.27;;;;;;;19.18;73.54;95737.03;5050631;28;20041;-80
2021/07/24 05:59:47;;;;;;;14.30;10.93;;;;;;;19.47;72.58;95746.03;5056868;28;20096;-77
2021/07/24 06:02:13;;;;;;;15.75;11.02;;;;;;;19.65;71.53;95747.88;5051459;28;20081;-77
2021/07/24 06:04:39;;;;;;;16.77;11.02;;;;;;;19.89;72.30;95740.75;5032498;28;20566;-80
2021/07/24 06:07:05;;;;;;;16.50;10.85;;;;;;;19.79;71.67;95748.50;5044509;28;20017;-80
2021/07/24 06:09:32;;;;;;;16.23;11.50;;;;;;;19.66;71.76;95754.03;5048392;28;20525;-79
2021/07/24 06:11:57;;;;;;;17.25;11.60;;;;;;;19.25;74.79;95755.59;5041952;28;20478;-79
2021/07/24 06:14:24;;;;;;;16.27;12.45;;;;;;;19.60;71.67;95766.38;5053875;28;20037;-78
2021/07/24 06:16:53;;;;;;;18.40;11.30;;;;;;;19.79;70.37;95780.50;5056991;28;20017;-81
2021/07/24 06:19:19;;;;;;;16.88;10.45;;;;;;;19.74;69.72;95791.84;5031472;28;20025;-78
2021/07/24 06:21:45;;;;;;;18.23;11.68;;;;;;;19.68;69.02;95789.28;5037046;28;20485;-79
2021/07/24 06:24:11;;;;;;;14.55;12.02;;;;;;;19.65;69.02;95792.38;5049382;28;20029;-79
2021/07/24 06:26:41;;;;;;;15.73;11.85;;;;;;;19.69;70.39;95797.06;5031313;28;20095;-78
2021/07/24 06:29:07;;;;;;;14.70;10.60;;;;;;;19.87;68.04;95806.84;5053183;28;20030;-81
2021/07/24 06:31:33;;;;;;;14.27;11.60;;;;;;;19.67;69.05;95815.13;5014980;28;20034;-79
2021/07/24 06:34:02;;;;;;;16.15;11.27;;;;;;;19.79;69.31;95812.53;5053185;28;20041;-79
2021/07/24 06:36:28;;;;;;;21.85;11.07;;;;;;;20.00;68.28;95820.00;5024293;28;20146;-80
2021/07/24 06:38:54;;;;;;;18.00;11.32;;;;;;;19.87;68.19;95804.19;5038225;28;20044;-79
2021/07/24 06:41:20;;;;;;;15.82;11.25;;;;;;;20.18;67.90;95805.75;5024474;28;20025;-78
2021/07/24 06:43:46;;;;;;;17.23;10.90;;;;;;;20.38;67.37;95809.97;5058019;28;20100;-79
2021/07/24 06:46:13;;;;;;;15.18;11.25;;;;;;;20.82;66.63;95811.25;5043038;28;20117;-79
2021/07/24 06:48:40;;;;;;;14.52;10.95;;;;;;;21.53;64.52;95806.63;5048402;28;20075;-81
2021/07/24 06:51:09;;;;;;;15.52;10.75;;;;;;;21.79;63.68;95805.19;5055549;28;20025;-81
2021/07/24 06:53:36;;;;;;;17.25;11.85;;;;;;;21.88;61.28;95795.75;5057719;28;20209;-80
2021/07/24 06:56:06;;;;;;;14.02;10.90;;;;;;;21.83;64.02;95779.59;5044536;28;20013;-78
2021/07/24 06:58:48;;;;;;;17.60;10.45;;;;;;;21.03;68.69;95785.81;5044255;28;20025;-80
2021/07/24 07:01:14;;;;;;;20.65;12.70;;;;;;;21.10;69.25;95791.00;5050348;28;20156;-79
2021/07/24 07:03:41;;;;;;;17.05;10.93;;;;;;;20.80;71.06;95801.88;5042412;28;20036;-80
2021/07/24 07:06:07;;;;;;;13.82;11.45;;;;;;;21.15;69.94;95797.25;5057541;28;20112;-80
2021/07/24 07:08:38;;;;;;;13.05;10.63;;;;;;;21.57;65.71;95810.44;5058699;28;20152;-79
2021/07/24 07:11:07;;;;;;;15.95;12.00;;;;;;;21.69;63.80;95814.91;5030896;28;20026;-77
2021/07/24 07:13:35;;;;;;;14.13;11.07;;;;;;;21.85;63.39;95806.91;5034600;28;20038;-80
2021/07/24 07:16:05;;;;;;;15.68;11.88;;;;;;;21.33;64.44;95801.66;5063526;28;20033;-79
2021/07/24 07:18:32;;;;;;;16.77;10.85;;;;;;;21.36;64.67;95793.19;5049766;28;20035;-76
2021/07/24 07:21:11;;;;;;;16.00;10.88;;;;;;;21.79;64.71;95789.13;5046407;28;20187;-76
2021/07/24 07:23:42;;;;;;;19.05;10.48;;;;;;;21.84;63.54;95788.44;5052812;28;20095;-79
2021/07/24 07:26:13;;;;;;;15.77;10.40;;;;;;;22.42;62.71;95781.09;5042591;28;20037;-78
2021/07/24 07:28:39;;;;;;;14.82;10.90;;;;;;;22.48;61.77;95791.66;5025757;28;20037;-79
2021/07/24 07:31:05;;;;;;;17.00;11.60;;;;;;;22.69;61.33;95795.44;5043730;28;20025;-81
2021/07/24 07:33:31;;;;;;;16.80;10.30;;;;;;;22.94;60.60;95800.41;5032250;28;20102;-80
2021/07/24 07:35:56;;;;;;;14.55;10.88;;;;;;;22.99;59.94;95803.13;5013883;28;20021;-80
2021/07/24 07:38:22;;;;;;;14.70;11.05;;;;;;;23.22;59.00;95802.09;5042344;28;20084;-79
2021/07/24 07:40:48;;;;;;;15.95;11.25;;;;;;;23.01;58.30;95794.84;5028505;28;20033;-78
2021/07/24 07:43:14;;;;;;;14.82;10.95;;;;;;;23.53;58.80;95791.69;5018678;28;20022;-80
2021/07/24 07:45:40;;;;;;;17.23;11.82;;;;;;;23.28;58.84;95795.72;5022953;28;20032;-82
2021/07/24 07:48:07;;;;;;;15.98;10.77;;;;;;;23.84;56.29;95803.59;5021991;28;20119;-79
2021/07/24 07:50:33;;;;;;;15.02;11.00;;;;;;;24.52;53.60;95808.53;5036284;28;20454;-81
2021/07/24 07:52:59;;;;;;;16.02;11.52;;;;;;;24.56;53.41;95820.38;5062264;28;20037;-80
2021/07/24 07:55:25;;;;;;;15.55;10.48;;;;;;;25.00;53.16;95815.56;5032710;28;20033;-78
2021/07/24 07:57:51;;;;;;;12.95;10.27;;;;;;;25.61;51.39;95805.06;5047165;28;20036;-78
2021/07/24 08:00:17;;;;;;;15.40;10.75;;;;;;;25.19;51.60;95818.66;5029970;28;20047;-77
2021/07/24 08:02:42;;;;;;;14.57;11.48;;;;;;;24.75;53.55;95818.06;5047357;28;20044;-82
2021/07/24 08:05:08;;;;;;;16.50;10.25;;;;;;;24.81;52.96;95819.75;5051019;28;20045;-81
2021/07/24 08:07:34;;;;;;;12.60;10.20;;;;;;;24.76;54.34;95817.03;5034487;28;20037;-80
2021/07/24 08:10:00;;;;;;;15.57;11.50;;;;;;;24.78;54.28;95817.56;5046002;28;20032;-80
2021/07/24 08:12:26;;;;;;;13.77;11.07;;;;;;;24.83;54.13;95814.91;5047975;28;20071;-81
2021/07/24 08:14:52;;;;;;;13.95;10.77;;;;;;;24.99;54.79;95815.84;5018642;28;20021;-81
2021/07/24 08:17:21;;;;;;;16.30;11.07;;;;;;;24.92;55.04;95813.38;5025998;28;20036;-78
2021/07/24 08:19:47;;;;;;;16.05;12.63;;;;;;;24.58;56.10;95813.69;5028468;28;20021;-81
2021/07/24 08:22:13;;;;;;;20.00;15.27;;;;;;;24.68;56.83;95810.22;5020432;28;20123;-81
2021/07/24 08:24:39;;;;;;;15.38;12.15;;;;;;;24.84;57.04;95817.34;5024311;28;20490;-81
2021/07/24 08:27:05;;;;;;;15.93;11.20;;;;;;;24.56;59.86;95826.56;5028688;28;20029;-81
2021/07/24 08:29:30;;;;;;;13.93;10.82;;;;;;;24.41;60.82;95829.97;5030648;28;20203;-79
2021/07/24 08:31:58;;;;;;;14.68;11.43;;;;;;;24.62;59.47;95824.75;5046541;28;20060;-79
2021/07/24 08:34:24;;;;;;;16.73;11.32;;;;;;;24.23;61.35;95836.47;5043614;28;20032;-81
2021/07/24 08:36:49;;;;;;;16.67;11.25;;;;;;;24.47;62.19;95841.53;5024333;28;20030;-80
2021/07/24 08:39:15;;;;;;;15.93;11.02;;;;;;;24.13;61.89;95849.00;5024976;28;20025;-79
2021/07/24 08:41:41;;;;;;;19.60;12.43;;;;;;;23.74;62.50;95857.19;5030188;28;20029;-80
2021/07/24 08:44:11;;;;;;;17.83;12.82;;;;;;;23.60;62.62;95850.56;5014849;28;20045;-77
2021/07/24 08:46:37;;;;;;;17.55;12.52;;;;;;;23.92;65.07;95851.50;5017784;28;20036;-81
2021/07/24 08:49:04;;;;;;;15.95;12.52;;;;;;;24.17;62.04;95850.13;5038072;28;20029;-79
2021/07/24 08:51:35;;;;;;;15.93;11.98;;;;;;;24.57;60.69;95855.06;5059665;28;20123;-79
2021/07/24 08:54:00;;;;;;;16.42;11.65;;;;;;;24.36;60.32;95847.88;5037289;28;20033;-79
2021/07/24 08:56:31;;;;;;;16.92;12.88;;;;;;;23.70;60.79;95837.28;5020259;28;20099;-81
2021/07/24 08:58:59;;;;;;;18.35;12.25;;;;;;;23.57;60.05;95827.72;5036514;28;20060;-81
2021/07/24 09:01:25;;;;;;;16.15;12.40;;;;;;;23.56;59.79;95833.34;5013459;28;20041;-79
2021/07/24 09:03:54;;;;;;;17.90;12.63;;;;;;;23.53;61.43;95838.13;5037542;28;20033;-81
2021/07/24 09:06:23;;;;;;;16.40;11.15;;;;;;;23.56;60.58;95849.44;5045795;28;20033;-80
2021/07/24 09:08:51;;;;;;;15.90;12.35;;;;;;;23.43;59.82;95843.38;5045858;28;20029;-81
2021/07/24 09:11:21;;;;;;;16.52;12.45;;;;;;;23.33;59.61;95840.56;5033078;28;20029;-81
2021/07/24 09:13:47;;;;;;;19.58;11.65;;;;;;;23.28;58.49;95821.75;5044463;28;20032;-81
2021/07/24 09:16:13;;;;;;;15.90;10.88;;;;;;;23.33;58.31;95802.19;5032583;28;20022;-80
2021/07/24 09:18:41;;;;;;;13.23;10.75;;;;;;;23.28;58.59;95760.84;5027654;28;20525;-81
2021/07/24 09:21:07;;;;;;;15.23;11.13;;;;;;;23.67;59.11;95755.34;5056677;28;20103;-80
2021/07/24 09:23:39;;;;;;;18.77;12.55;;;;;;;23.90;60.18;95758.81;5044993;28;20086;-80
2021/07/24 09:26:06;;;;;;;15.20;11.07;;;;;;;24.09;58.63;95772.69;5026367;28;20029;-81
2021/07/24 09:28:35;;;;;;;15.75;11.70;;;;;;;24.28;56.21;95775.78;5046691;28;20109;-80
2021/07/24 09:31:20;;;;;;;15.02;10.77;;;;;;;25.01;53.09;95762.56;5022342;28;20099;-78
2021/07/24 09:33:50;;;;;;;16.70;12.07;;;;;;;25.73;50.80;95755.56;5062530;28;20120;-82
2021/07/24 09:36:30;;;;;;;17.88;11.65;;;;;;;25.33;52.77;95738.25;5030465;28;20639;-81
2021/07/24 09:39:07;;;;;;;15.20;11.70;;;;;;;25.59;52.63;95726.47;5050210;28;20105;-77
2021/07/24 09:41:34;;;;;;;13.15;11.07;;;;;;;25.15;53.44;95721.50;5030928;28;20030;-80
2021/07/24 09:44:00;;;;;;;16.27;11.13;;;;;;;24.83;53.21;95715.41;5012823;28;20013;-81
2021/07/24 09:46:27;;;;;;;16.27;12.00;;;;;;;23.92;55.79;95727.16;5047107;28;20037;-80
2021/07/24 09:48:54;;;;;;;15.73;11.80;;;;;;;23.86;55.43;95725.47;5017100;28;20414;-80
2021/07/24 09:51:41;;;;;;;16.13;11.45;;;;;;;24.10;55.91;95721.38;5037114;28;20081;-81
2021/07/24 09:54:23;;;;;;;16.27;10.90;;;;;;;23.32;57.65;95725.47;5040043;28;20029;-81
2021/07/24 09:56:50;;;;;;;13.95;11.20;;;;;;;23.30;58.16;95721.16;5027301;28;20509;-79
2021/07/24 09:59:24;;;;;;;13.80;10.52;;;;;;;23.83;56.24;95718.75;5033357;28;20033;-78
2021/07/24 10:01:57;;;;;;;14.85;11.10;;;;;;;23.70;54.35;95719.97;5031231;28;20029;-79
2021/07/24 10:04:29;;;;;;;16.55;11.88;;;;;;;23.63;55.96;95719.34;5059322;28;20041;-81
2021/07/24 10:06:58;;;;;;;18.95;11.70;;;;;;;23.92;55.74;95722.59;5005079;28;20037;-80
2021/07/24 10:09:28;;;;;;;14.93;10.68;;;;;;;23.99;55.04;95731.22;5032224;28;20025;-78
2021/07/24 10:11:58;;;;;;;18.80;12.02;;;;;;;23.65;55.30;95730.63;5026296;28;20037;-82
2021/07/24 10:14:24;;;;;;;14.20;11.43;;;;;;;23.59;55.72;95736.22;5032533;28;20041;-80
2021/07/24 10:16:51;;;;;;;13.65;11.48;;;;;;;23.71;55.97;95745.78;5048162;28;20036;-82
2021/07/24 10:19:19;;;;;;;16.67;11.27;;;;;;;23.69;55.96;95733.66;5030574;28;20033;-82
2021/07/24 10:21:46;;;;;;;14.93;11.10;;;;;;;23.44;56.65;95732.31;5040313;28;20048;-82
2021/07/24 10:24:12;;;;;;;16.13;11.02;;;;;;;23.65;56.48;95740.56;5037974;28;20456;-82
2021/07/24 10:26:49;;;;;;;15.60;11.27;;;;;;;23.44;56.90;95726.94;5025234;28;20087;-82
2021/07/24 10:29:18;;;;;;;16.38;10.85;;;;;;;23.67;56.63;95727.69;5037902;28;20103;-79
2021/07/24 10:31:58;;;;;;;15.13;10.45;;;;;;;23.88;57.28;95736.78;5030545;28;20729;-82
2021/07/24 10:34:28;;;;;;;13.15;10.48;;;;;;;24.73;53.85;95720.75;5050673;28;20122;-82
2021/07/24 10:36:54;;;;;;;15.32;10.75;;;;;;;25.89;50.34;95713.31;5032187;28;20052;-82
2021/07/24 10:39:21;;;;;;;18.80;11.25;;;;;;;27.07;47.87;95709.34;5043191;28;20096;-81
2021/07/24 10:41:48;;;;;;;16.65;11.13;;;;;;;27.99;44.90;95710.75;5025169;28;20029;-81
2021/07/24 10:44:15;;;;;;;12.77;10.35;;;;;;;28.20;44.57;95701.34;5040213;28;20025;-81
2021/07/24 10:46:44;;;;;;;13.70;10.77;;;;;;;27.58;44.83;95711.00;5038016;28;20045;-80
2021/07/24 10:49:21;;;;;;;13.27;10.00;;;;;;;27.62;46.57;95706.66;5030635;28;20037;-80
2021/07/24 10:52:01;;;;;;;16.17;12.02;;;;;;;27.22;46.63;95703.91;5053419;28;20028;-80
2021/07/24 10:54:27;;;;;;;16.23;11.48;;;;;;;26.51;48.35;95704.13;5042939;28;20406;-81
2021/07/24 10:56:53;;;;;;;15.70;11.02;;;;;;;26.89;43.62;95694.56;5027004;28;20028;-82
2021/07/24 10:59:20;;;;;;;13.75;9.80;;;;;;;26.58;45.96;95698.44;5034942;28;20037;-81
2021/07/24 11:01:56;;;;;;;16.33;10.95;;;;;;;26.82;45.76;95694.06;5056908;28;20025;-80
2021/07/24 11:04:37;;;;;;;13.23;10.68;;;;;;;26.86;44.82;95695.16;5027806;28;20044;-81
2021/07/24 11:07:12;;;;;;;15.63;10.57;;;;;;;26.29;49.22;95699.84;5047536;28;20053;-79
2021/07/24 11:09:46;;;;;;;15.27;11.07;;;;;;;26.16;47.71;95695.00;5038429;28;20077;-81
2021/07/24 11:12:13;;;;;;;15.40;10.48;;;;;;;26.56;48.10;95677.97;5045829;28;20086;-82
2021/07/24 11:14:39;;;;;;;16.65;11.63;;;;;;;26.65;48.72;95680.09;5031477;28;20511;-79
2021/07/24 11:17:07;;;;;;;13.93;10.10;;;;;;;26.61;49.39;95681.72;5032901;28;20051;-81
2021/07/24 11:19:35;;;;;;;16.50;11.23;;;;;;;26.91;49.96;95672.72;5025921;28;20029;-80
2021/07/24 11:22:20;;;;;;;16.02;10.98;;;;;;;27.24;47.27;95684.75;5034869;28;20201;-80
2021/07/24 11:24:49;;;;;;;14.60;11.07;;;;;;;27.26;48.97;95682.53;5031853;28;20041;-78